createdAt,value
2022-12-15T00:02:18.298Z,9.80
2022-12-15T00:05:03.744Z,10.27
2022-12-15T00:07:49.227Z,10.20
2022-12-15T00:10:34.674Z,10.20
2022-12-15T00:13:20.060Z,10.25
2022-12-15T00:16:06.658Z,9.93
2022-12-15T00:18:52.647Z,9.45
2022-12-15T00:21:37.958Z,10.17
2022-12-15T00:24:23.667Z,10.10
2022-12-15T00:27:09.035Z,10.02
2022-12-15T00:29:54.732Z,10.07
2022-12-15T00:32:41.307Z,9.65
2022-12-15T00:35:26.655Z,10.37
2022-12-15T00:38:12.089Z,10.65
2022-12-15T00:40:38.850Z,9.55
2022-12-15T00:43:05.652Z,9.73
2022-12-15T00:45:50.983Z,10.43
2022-12-15T00:48:17.700Z,10.40
2022-12-15T00:50:53.694Z,10.15
2022-12-15T00:53:40.398Z,10.35
2022-12-15T00:56:26.472Z,10.10
2022-12-15T00:59:12.116Z,10.30
2022-12-15T01:01:57.775Z,10.17
2022-12-15T01:04:43.414Z,9.85
2022-12-15T01:07:28.951Z,9.50
2022-12-15T01:10:14.205Z,10.07
2022-12-15T01:12:59.615Z,9.30
2022-12-15T01:15:45.203Z,10.13
2022-12-15T01:18:30.918Z,10.27
2022-12-15T01:21:03.640Z,9.73
2022-12-15T01:23:31.993Z,9.70
2022-12-15T01:25:59.025Z,10.45
2022-12-15T01:28:25.752Z,10.10
2022-12-15T01:30:52.701Z,10.10
2022-12-15T01:33:20.448Z,9.50
2022-12-15T01:35:58.201Z,9.00
2022-12-15T01:38:26.613Z,9.95
2022-12-15T01:41:01.914Z,9.47
2022-12-15T01:43:35.037Z,10.15
2022-12-15T01:46:06.890Z,10.25
2022-12-15T01:49:11.164Z,9.75
2022-12-15T01:51:40.055Z,8.98
2022-12-15T01:54:21.829Z,10.23
2022-12-15T01:56:55.014Z,9.60
2022-12-15T01:59:27.165Z,10.43
2022-12-15T02:01:54.031Z,10.45
2022-12-15T02:04:22.854Z,10.52
2022-12-15T02:06:50.686Z,10.37
2022-12-15T02:09:18.702Z,10.20
2022-12-15T02:12:08.797Z,10.10
2022-12-15T02:14:44.752Z,9.90
2022-12-15T02:17:11.404Z,9.70
2022-12-15T02:19:40.839Z,9.93
2022-12-15T02:22:22.520Z,10.52
2022-12-15T02:24:49.638Z,10.73
2022-12-15T02:27:34.316Z,11.43
2022-12-15T02:30:19.091Z,9.70
2022-12-15T02:33:13.784Z,10.20
2022-12-15T02:36:14.275Z,9.95
2022-12-15T02:38:45.007Z,9.07
2022-12-15T02:41:38.026Z,9.07
2022-12-15T02:44:17.152Z,10.23
2022-12-15T02:46:46.840Z,10.00
2022-12-15T02:49:44.978Z,9.95
2022-12-15T02:52:41.561Z,9.85
2022-12-15T02:55:33.084Z,10.13
2022-12-15T02:58:10.324Z,9.52
2022-12-15T03:00:46.585Z,9.33
2022-12-15T03:03:20.201Z,9.20
2022-12-15T03:05:55.055Z,9.13
2022-12-15T03:08:22.301Z,9.52
2022-12-15T03:10:52.720Z,9.63
2022-12-15T03:13:19.606Z,9.43
2022-12-15T03:15:46.538Z,9.18
2022-12-15T03:18:13.228Z,7.72
2022-12-15T03:20:39.949Z,8.70
2022-12-15T03:23:07.091Z,10.57
2022-12-15T03:25:33.877Z,9.50
2022-12-15T03:28:00.760Z,9.40
2022-12-15T03:30:27.460Z,9.52
2022-12-15T03:32:54.219Z,8.77
2022-12-15T03:35:20.940Z,9.40
2022-12-15T03:37:47.849Z,9.77
2022-12-15T03:40:16.661Z,9.40
2022-12-15T03:42:49.250Z,10.23
2022-12-15T03:45:21.655Z,9.30
2022-12-15T03:47:49.259Z,9.48
2022-12-15T03:50:20.343Z,8.97
2022-12-15T03:52:55.056Z,8.82
2022-12-15T03:55:23.059Z,9.63
2022-12-15T03:57:50.963Z,8.52
2022-12-15T04:00:19.732Z,8.98
2022-12-15T04:02:47.722Z,9.00
2022-12-15T04:05:28.688Z,9.48
2022-12-15T04:07:57.240Z,8.65
2022-12-15T04:10:31.726Z,8.63
2022-12-15T04:13:10.301Z,8.85
2022-12-15T04:15:39.156Z,9.47
2022-12-15T04:18:07.783Z,8.52
2022-12-15T04:20:34.533Z,9.32
2022-12-15T04:23:01.370Z,8.95
2022-12-15T04:25:47.148Z,8.70
2022-12-15T04:28:32.551Z,8.40
2022-12-15T04:31:27.854Z,8.88
2022-12-15T04:34:17.603Z,8.27
2022-12-15T04:37:05.691Z,8.00
2022-12-15T04:39:52.622Z,8.45
2022-12-15T04:42:38.452Z,8.07
2022-12-15T04:45:25.131Z,8.13
2022-12-15T04:48:10.607Z,8.48
2022-12-15T04:50:56.050Z,8.27
2022-12-15T04:53:41.198Z,8.25
2022-12-15T04:56:33.933Z,8.53
2022-12-15T04:59:19.730Z,9.82
2022-12-15T05:02:05.419Z,9.63
2022-12-15T05:04:51.221Z,9.88
2022-12-15T05:07:37.015Z,8.82
2022-12-15T05:10:23.459Z,9.03
2022-12-15T05:13:08.993Z,9.02
2022-12-15T05:15:54.496Z,9.10
2022-12-15T05:18:39.772Z,8.73
2022-12-15T05:21:25.596Z,9.18
2022-12-15T05:24:11.136Z,9.10
2022-12-15T05:26:56.648Z,9.80
2022-12-15T05:29:41.974Z,9.20
2022-12-15T05:32:08.759Z,9.80
2022-12-15T05:34:36.960Z,8.88
2022-12-15T05:37:05.593Z,9.40
2022-12-15T05:39:32.630Z,9.10
2022-12-15T05:41:59.696Z,9.48
2022-12-15T05:44:26.832Z,9.75
2022-12-15T05:46:53.788Z,9.20
2022-12-15T05:49:20.648Z,8.40
2022-12-15T05:51:48.325Z,8.40
2022-12-15T05:54:18.291Z,9.18
2022-12-15T05:56:45.726Z,8.93
2022-12-15T05:59:13.605Z,9.25
2022-12-15T06:01:40.521Z,9.83
2022-12-15T06:04:07.610Z,9.48
2022-12-15T06:06:34.468Z,9.55
2022-12-15T06:09:01.206Z,9.40
2022-12-15T06:11:28.019Z,9.20
2022-12-15T06:13:55.959Z,9.67
2022-12-15T06:16:24.563Z,9.27
2022-12-15T06:18:55.436Z,9.63
2022-12-15T06:21:25.213Z,9.68
2022-12-15T06:23:52.994Z,10.13
2022-12-15T06:26:39.838Z,10.20
2022-12-15T06:29:09.102Z,10.13
2022-12-15T06:31:37.091Z,10.07
2022-12-15T06:34:06.085Z,10.35
2022-12-15T06:36:33.090Z,9.52
2022-12-15T06:39:01.627Z,9.70
2022-12-15T06:41:31.976Z,10.07
2022-12-15T06:44:00.398Z,9.95
2022-12-15T06:46:29.257Z,11.35
2022-12-15T06:48:56.487Z,10.75
2022-12-15T06:51:23.471Z,10.73
2022-12-15T06:53:53.940Z,10.07
2022-12-15T06:56:33.976Z,12.45
2022-12-15T06:59:03.231Z,17.35
2022-12-15T07:01:31.084Z,19.83
2022-12-15T07:04:00.307Z,11.10
2022-12-15T07:06:28.264Z,12.70
2022-12-15T07:08:56.746Z,17.73
2022-12-15T07:11:24.080Z,15.13
2022-12-15T07:13:52.846Z,11.48
2022-12-15T07:16:21.304Z,10.77
2022-12-15T07:18:48.039Z,10.63
2022-12-15T07:21:15.073Z,13.57
2022-12-15T07:23:58.064Z,12.93
2022-12-15T07:26:26.061Z,11.50
2022-12-15T07:28:53.764Z,10.10
2022-12-15T07:31:21.506Z,10.38
2022-12-15T07:33:48.750Z,10.35
2022-12-15T07:36:15.975Z,10.65
2022-12-15T07:38:42.871Z,10.23
2022-12-15T07:41:10.294Z,10.50
2022-12-15T07:43:37.832Z,10.43
2022-12-15T07:46:05.853Z,10.77
2022-12-15T07:48:33.014Z,10.35
2022-12-15T07:51:09.753Z,11.93
2022-12-15T07:53:40.068Z,11.17
2022-12-15T07:56:09.332Z,10.75
2022-12-15T07:58:37.677Z,10.82
2022-12-15T08:01:06.978Z,13.07
2022-12-15T08:03:35.738Z,10.80
2022-12-15T08:06:11.645Z,10.90
2022-12-15T08:08:38.795Z,10.38
2022-12-15T08:11:11.076Z,10.52
2022-12-15T08:16:26.561Z,10.07
2022-12-15T08:18:53.752Z,10.17
2022-12-15T08:21:20.539Z,10.98
2022-12-15T08:23:47.806Z,10.70
2022-12-15T08:26:17.618Z,11.60
2022-12-15T08:28:45.785Z,11.05
2022-12-15T08:31:18.543Z,10.73
2022-12-15T08:33:46.297Z,11.98
2022-12-15T08:36:15.489Z,11.20
2022-12-15T08:38:44.234Z,11.75
2022-12-15T08:41:19.957Z,11.63
2022-12-15T08:43:49.167Z,11.40
2022-12-15T08:46:17.964Z,12.05
2022-12-15T08:48:44.974Z,11.52
2022-12-15T08:51:12.574Z,12.60
2022-12-15T08:53:39.310Z,12.38
2022-12-15T08:56:08.643Z,12.33
2022-12-15T08:58:35.808Z,12.38
2022-12-15T09:01:07.911Z,12.32
2022-12-15T09:03:36.231Z,12.98
2022-12-15T09:06:08.828Z,12.80
2022-12-15T09:08:35.991Z,13.27
2022-12-15T09:11:05.476Z,13.80
2022-12-15T09:13:33.164Z,13.57
2022-12-15T09:16:13.250Z,15.98
2022-12-15T09:18:42.857Z,21.40
2022-12-15T09:21:14.871Z,22.60
2022-12-15T09:23:42.548Z,20.35
2022-12-15T09:26:14.368Z,19.52
2022-12-15T09:28:41.581Z,18.92
2022-12-15T09:31:22.736Z,14.75
2022-12-15T09:33:53.844Z,14.23
2022-12-15T09:36:21.027Z,14.75
2022-12-15T09:38:47.781Z,14.70
2022-12-15T09:41:14.994Z,15.23
2022-12-15T09:44:13.396Z,15.43
2022-12-15T09:47:01.292Z,15.07
2022-12-15T09:49:57.225Z,15.43
2022-12-15T09:52:30.324Z,15.25
2022-12-15T09:54:58.438Z,14.38
2022-12-15T09:57:44.700Z,14.43
2022-12-15T10:00:21.774Z,13.90
2022-12-15T10:03:19.531Z,13.98
2022-12-15T10:06:27.112Z,14.20
2022-12-15T10:08:57.139Z,14.27
2022-12-15T10:11:41.635Z,14.93
2022-12-15T10:14:20.350Z,14.30
2022-12-15T10:16:52.808Z,14.73
2022-12-15T10:19:22.509Z,15.52
2022-12-15T10:21:50.442Z,15.57
2022-12-15T10:24:44.589Z,15.43
2022-12-15T10:27:25.080Z,16.93
2022-12-15T10:30:02.334Z,17.40
2022-12-15T10:33:06.665Z,16.42
2022-12-15T10:35:35.947Z,17.83
2022-12-15T10:38:06.158Z,18.10
2022-12-15T10:40:41.909Z,17.10
2022-12-15T10:43:37.171Z,16.63
2022-12-15T10:46:27.937Z,16.67
2022-12-15T10:49:23.743Z,16.17
2022-12-15T10:51:57.311Z,16.40
2022-12-15T10:54:27.281Z,15.80
2022-12-15T10:56:59.607Z,16.27
2022-12-15T10:59:36.328Z,15.80
2022-12-15T11:02:24.672Z,15.90
2022-12-15T11:05:17.866Z,17.90
2022-12-15T11:08:17.097Z,16.33
2022-12-15T11:11:15.567Z,15.82
2022-12-15T11:13:43.814Z,15.70
2022-12-15T11:16:20.133Z,16.48
2022-12-15T11:19:08.041Z,16.83
2022-12-15T11:21:44.945Z,16.00
2022-12-15T11:24:19.454Z,16.55
2022-12-15T11:26:56.203Z,16.75
2022-12-15T11:29:44.626Z,18.38
2022-12-15T11:32:12.967Z,20.50
2022-12-15T11:34:44.582Z,22.77
2022-12-15T11:37:40.328Z,21.63
2022-12-15T11:40:18.924Z,18.95
2022-12-15T11:43:20.911Z,18.30
2022-12-15T11:46:03.131Z,17.45
2022-12-15T11:49:01.708Z,18.17
2022-12-15T11:51:42.955Z,16.45
2022-12-15T11:54:15.654Z,17.15
2022-12-15T11:56:50.652Z,18.77
2022-12-15T11:59:35.643Z,18.00
2022-12-15T12:02:24.945Z,17.10
2022-12-15T12:05:23.910Z,17.90
2022-12-15T12:07:56.801Z,15.77
2022-12-15T12:10:33.606Z,14.23
2022-12-15T12:13:21.962Z,14.43
2022-12-15T12:16:01.626Z,14.43
2022-12-15T12:18:37.604Z,13.57
2022-12-15T12:21:30.373Z,14.25
2022-12-15T12:24:18.128Z,13.20
2022-12-15T12:27:09.006Z,13.50
2022-12-15T12:29:40.706Z,13.90
2022-12-15T12:32:15.901Z,13.90
2022-12-15T12:35:32.042Z,13.48
2022-12-15T12:38:04.879Z,12.60
2022-12-15T12:41:04.377Z,13.90
2022-12-15T12:43:38.335Z,14.50
2022-12-15T12:46:05.012Z,14.80
2022-12-15T12:48:38.289Z,15.13
2022-12-15T12:51:11.299Z,14.70
2022-12-15T12:53:38.012Z,14.75
2022-12-15T12:56:05.116Z,15.20
2022-12-15T12:58:45.383Z,14.30
2022-12-15T13:01:25.218Z,14.75
2022-12-15T13:04:34.071Z,14.35
2022-12-15T13:07:25.262Z,14.85
2022-12-15T13:10:13.689Z,14.67
2022-12-15T13:12:52.843Z,15.90
2022-12-15T13:15:43.922Z,15.63
2022-12-15T13:18:18.905Z,15.35
2022-12-15T13:20:50.564Z,14.90
2022-12-15T13:23:23.717Z,14.70
2022-12-15T13:25:56.606Z,15.10
2022-12-15T13:28:36.330Z,14.88
2022-12-15T13:31:21.689Z,15.10
2022-12-15T13:33:52.467Z,15.73
2022-12-15T13:36:39.646Z,16.20
2022-12-15T13:39:12.616Z,17.40
2022-12-15T13:42:00.600Z,18.95
2022-12-15T13:45:03.966Z,18.50
2022-12-15T13:47:31.277Z,17.35
2022-12-15T13:50:02.941Z,15.77
2022-12-15T13:53:16.521Z,13.80
2022-12-15T13:55:27.998Z,14.90
2022-12-15T13:58:00.275Z,15.43
2022-12-15T14:00:27.007Z,15.25
2022-12-15T14:03:12.184Z,15.90
2022-12-15T14:05:43.084Z,15.57
2022-12-15T14:08:15.878Z,16.45
2022-12-15T14:10:54.631Z,15.52
2022-12-15T14:13:24.029Z,15.98
2022-12-15T14:16:07.247Z,16.03
2022-12-15T14:18:36.941Z,15.20
2022-12-15T14:21:20.409Z,15.73
2022-12-15T14:26:35.295Z,14.40
2022-12-15T14:29:06.826Z,15.20
2022-12-15T14:31:36.805Z,14.07
2022-12-15T14:34:12.744Z,13.98
2022-12-15T14:36:42.047Z,14.88
2022-12-15T14:39:34.774Z,14.90
2022-12-15T14:42:02.191Z,14.17
2022-12-15T14:44:38.153Z,17.27
2022-12-15T14:47:15.981Z,19.17
2022-12-15T14:49:45.523Z,17.48
2022-12-15T14:52:32.958Z,15.52
2022-12-15T14:55:16.970Z,15.00
2022-12-15T14:57:45.511Z,14.30
2022-12-15T15:00:27.127Z,15.48
2022-12-15T15:03:18.856Z,15.23
2022-12-15T15:05:57.943Z,13.45
2022-12-15T15:08:37.019Z,13.20
2022-12-15T15:11:30.000Z,15.07
2022-12-15T15:14:13.218Z,14.50
2022-12-15T15:16:40.444Z,16.55
2022-12-15T15:19:07.815Z,16.08
2022-12-15T15:21:39.032Z,18.63
2022-12-15T15:24:11.854Z,16.65
2022-12-15T15:26:40.045Z,14.32
2022-12-15T15:29:38.210Z,13.45
2022-12-15T15:32:16.485Z,11.98
2022-12-15T15:34:45.005Z,11.77
2022-12-15T15:37:20.723Z,11.80
2022-12-15T15:39:52.579Z,12.75
2022-12-15T15:42:19.696Z,12.40
2022-12-15T15:44:46.504Z,12.95
2022-12-15T15:47:24.933Z,13.07
2022-12-15T15:49:53.458Z,14.80
2022-12-15T15:52:20.261Z,15.15
2022-12-15T15:54:47.418Z,16.38
2022-12-15T15:57:18.403Z,16.23
2022-12-15T15:59:46.645Z,16.13
2022-12-15T16:02:15.079Z,16.52
2022-12-15T16:04:43.356Z,17.17
2022-12-15T16:07:29.582Z,17.52
2022-12-15T16:09:57.506Z,17.58
2022-12-15T16:12:50.085Z,18.43
2022-12-15T16:15:21.658Z,17.52
2022-12-15T16:17:48.708Z,17.73
2022-12-15T16:20:17.974Z,18.27
2022-12-15T16:22:47.589Z,17.92
2022-12-15T16:25:43.759Z,17.67
2022-12-15T16:28:18.926Z,17.58
2022-12-15T16:30:45.781Z,18.38
2022-12-15T16:33:13.135Z,17.90
2022-12-15T16:35:41.905Z,18.10
2022-12-15T16:38:26.170Z,17.40
2022-12-15T16:40:53.338Z,17.95
2022-12-15T16:43:24.464Z,18.67
2022-12-15T16:45:54.032Z,18.55
2022-12-15T16:48:21.373Z,19.02
2022-12-15T16:50:58.212Z,18.90
2022-12-15T16:53:30.595Z,19.13
2022-12-15T16:55:59.144Z,19.42
2022-12-15T16:58:27.541Z,21.42
2022-12-15T17:00:54.536Z,28.02
2022-12-15T17:03:28.907Z,33.03
2022-12-15T17:05:58.807Z,26.60
2022-12-15T17:08:46.595Z,23.70
2022-12-15T17:11:25.126Z,21.35
2022-12-15T17:13:55.224Z,21.60
2022-12-15T17:16:24.398Z,22.23
2022-12-15T17:18:52.023Z,20.60
2022-12-15T17:21:29.021Z,21.42
2022-12-15T17:23:59.019Z,22.13
2022-12-15T17:26:30.557Z,22.00
2022-12-15T17:29:18.748Z,22.77
2022-12-15T17:31:45.617Z,21.42
2022-12-15T17:34:32.876Z,23.05
2022-12-15T17:37:04.807Z,22.92
2022-12-15T17:39:34.792Z,23.13
2022-12-15T17:42:02.913Z,22.90
2022-12-15T17:44:36.331Z,22.85
2022-12-15T17:47:06.796Z,23.02
2022-12-15T17:49:37.672Z,23.60
2022-12-15T17:52:19.040Z,23.42
2022-12-15T17:54:45.856Z,23.47
2022-12-15T17:57:12.935Z,25.60
2022-12-15T17:59:39.792Z,25.42
2022-12-15T18:02:08.405Z,25.98
2022-12-15T18:04:35.308Z,26.13
2022-12-15T18:07:02.820Z,28.60
2022-12-15T18:09:30.886Z,25.65
2022-12-15T18:11:58.000Z,25.05
2022-12-15T18:14:24.861Z,25.38
2022-12-15T18:16:51.819Z,23.50
2022-12-15T18:19:18.610Z,25.13
2022-12-15T18:21:45.331Z,25.25
2022-12-15T18:24:17.303Z,24.45
2022-12-15T18:26:44.399Z,27.13
2022-12-15T18:29:17.834Z,24.45
2022-12-15T18:31:58.564Z,23.00
2022-12-15T18:34:25.404Z,24.40
2022-12-15T18:36:52.079Z,26.65
2022-12-15T18:39:23.488Z,30.05
2022-12-15T18:41:51.466Z,27.73
2022-12-15T18:44:24.262Z,26.13
2022-12-15T18:46:51.975Z,24.07
2022-12-15T18:49:19.396Z,24.27
2022-12-15T18:51:47.410Z,26.42
2022-12-15T18:54:20.846Z,27.75
2022-12-15T18:56:48.069Z,30.73
2022-12-15T18:59:16.839Z,30.37
2022-12-15T19:01:45.638Z,30.83
2022-12-15T19:04:13.644Z,27.23
2022-12-15T19:06:41.008Z,25.30
2022-12-15T19:09:19.128Z,27.48
2022-12-15T19:12:17.555Z,25.67
2022-12-15T19:14:50.434Z,23.30
2022-12-15T19:17:38.083Z,24.38
2022-12-15T19:20:43.441Z,24.40
2022-12-15T19:23:11.818Z,24.67
2022-12-15T19:25:39.819Z,27.03
2022-12-15T19:28:12.468Z,27.67
2022-12-15T19:30:42.227Z,29.83
2022-12-15T19:33:10.635Z,27.02
2022-12-15T19:35:38.494Z,26.40
2022-12-15T19:38:05.511Z,27.77
2022-12-15T19:40:34.417Z,26.27
2022-12-15T19:43:02.404Z,26.00
2022-12-15T19:45:31.413Z,27.42
2022-12-15T19:47:59.253Z,27.27
2022-12-15T19:50:30.362Z,27.10
2022-12-15T19:53:00.460Z,28.00
2022-12-15T19:55:33.895Z,27.15
2022-12-15T19:58:05.535Z,27.67
2022-12-15T20:00:32.197Z,28.00
2022-12-15T20:02:59.004Z,27.17
2022-12-15T20:05:26.034Z,27.52
2022-12-15T20:07:54.672Z,29.38
2022-12-15T20:10:29.332Z,29.05
2022-12-15T20:12:59.560Z,29.67
2022-12-15T20:15:26.539Z,30.07
2022-12-15T20:17:57.218Z,30.27
2022-12-15T20:20:27.066Z,30.75
2022-12-15T20:22:56.487Z,31.35
2022-12-15T20:25:27.496Z,31.67
2022-12-15T20:27:54.431Z,32.30
2022-12-15T20:30:32.707Z,30.70
2022-12-15T20:33:00.901Z,33.05
2022-12-15T20:35:28.489Z,33.83
2022-12-15T20:37:55.224Z,33.65
2022-12-15T20:40:25.703Z,32.93
2022-12-15T20:42:53.881Z,35.40
2022-12-15T20:45:26.360Z,33.28
2022-12-15T20:47:54.831Z,33.63
2022-12-15T20:50:34.918Z,34.45
2022-12-15T20:53:02.126Z,33.77
2022-12-15T20:55:29.704Z,34.53
2022-12-15T20:57:56.416Z,33.88
2022-12-15T21:00:23.285Z,36.13
2022-12-15T21:02:50.189Z,36.08
2022-12-15T21:05:22.326Z,35.23
2022-12-15T21:07:49.370Z,34.83
2022-12-15T21:10:18.179Z,36.38
2022-12-15T21:12:47.024Z,37.13
2022-12-15T21:15:14.993Z,37.85
2022-12-15T21:17:42.775Z,38.37
2022-12-15T21:20:10.571Z,35.67
2022-12-15T21:22:37.379Z,35.35
2022-12-15T21:25:04.579Z,36.45
2022-12-15T21:27:31.257Z,37.05
2022-12-15T21:29:57.972Z,36.60
2022-12-15T21:32:24.715Z,36.42
2022-12-15T21:34:51.814Z,36.83
2022-12-15T21:37:26.905Z,37.20
2022-12-15T21:39:54.539Z,37.28
2022-12-15T21:42:21.815Z,36.10
2022-12-15T21:44:48.530Z,37.00
2022-12-15T21:47:49.766Z,36.85
2022-12-15T21:50:19.123Z,33.92
2022-12-15T21:52:46.684Z,35.50
2022-12-15T21:55:17.615Z,35.03
2022-12-15T21:57:45.194Z,33.47
2022-12-15T22:00:14.248Z,33.33
2022-12-15T22:02:41.632Z,32.08
2022-12-15T22:05:23.910Z,32.05
2022-12-15T22:07:51.195Z,30.67
2022-12-15T22:10:18.448Z,28.88
2022-12-15T22:12:53.420Z,28.00
2022-12-15T22:15:26.211Z,27.70
2022-12-15T22:17:53.092Z,27.67
2022-12-15T22:20:22.600Z,25.77
2022-12-15T22:22:50.121Z,24.23
2022-12-15T22:25:25.084Z,22.48
2022-12-15T22:27:52.562Z,22.17
2022-12-15T22:30:24.499Z,21.35
2022-12-15T22:32:51.534Z,18.80
2022-12-15T22:35:20.999Z,21.63
2022-12-15T22:37:49.556Z,21.88
2022-12-15T22:40:17.494Z,21.63
2022-12-15T22:42:49.157Z,20.98
2022-12-15T22:45:19.108Z,20.73
2022-12-15T22:47:49.993Z,21.88
2022-12-15T22:50:28.067Z,22.45
2022-12-15T22:52:54.949Z,21.98
2022-12-15T22:55:23.118Z,22.58
2022-12-15T22:58:03.155Z,18.93
2022-12-15T23:00:29.953Z,21.35
2022-12-15T23:05:30.347Z,21.55
2022-12-15T23:07:58.542Z,20.25
2022-12-15T23:10:43.811Z,19.53
2022-12-15T23:13:10.523Z,18.15
2022-12-15T23:15:55.848Z,17.80
2022-12-15T23:18:22.575Z,19.48
2022-12-15T23:20:51.499Z,19.58
2022-12-15T23:23:18.338Z,19.73
2022-12-15T23:25:46.748Z,19.40
2022-12-15T23:28:14.227Z,18.90
2022-12-15T23:30:41.003Z,18.85
2022-12-15T23:33:07.698Z,17.88
2022-12-15T23:35:34.488Z,13.93
2022-12-15T23:38:01.151Z,16.83
2022-12-15T23:40:27.823Z,16.73
2022-12-15T23:42:54.516Z,11.48
2022-12-15T23:45:22.344Z,14.85
2022-12-15T23:47:49.168Z,12.73
2022-12-15T23:50:16.258Z,9.75
2022-12-15T23:52:43.056Z,12.15
2022-12-15T23:55:10.279Z,10.13
2022-12-15T23:57:38.043Z,10.98
